Terminal Aerodrome Forecast
Issued by NWS Louisville, KY

Home | Current Version | Previous Version | Text Only | Print | Product List | Glossary On
Versions: 1 2 3 4 5 6 7 8 9 10 11 12 13 14 15 16 17 18
000
FTUS43 KLMK 280500
TAFSDF
TAF
KSDF 280520Z 2806/2912 31009KT P6SM FEW080
     FM281400 32013G18KT P6SM BKN040
     FM290000 34008KT P6SM FEW250=

USA.gov is the U.S. government's official web portal to all federal, state and local government web resources and services.